sensor_id;sensor_type;location;lat;lon;timestamp;temperature;humidity
32147;DHT22;32190;49.112;8.598;2023-12-29T00:01:14;12.90;66.50
32147;DHT22;32190;49.112;8.598;2023-12-29T00:07:04;12.90;66.40
32147;DHT22;32190;49.112;8.598;2023-12-29T00:12:55;13.00;66.50
32147;DHT22;32190;49.112;8.598;2023-12-29T00:18:45;13.00;66.50
32147;DHT22;32190;49.112;8.598;2023-12-29T00:24:36;13.10;66.50
32147;DHT22;32190;49.112;8.598;2023-12-29T00:30:26;13.00;66.30
32147;DHT22;32190;49.112;8.598;2023-12-29T00:36:19;13.00;66.20
32147;DHT22;32190;49.112;8.598;2023-12-29T00:42:10;13.00;66.30
32147;DHT22;32190;49.112;8.598;2023-12-29T00:48:01;12.90;66.30
32147;DHT22;32190;49.112;8.598;2023-12-29T00:53:51;12.90;66.40
32147;DHT22;32190;49.112;8.598;2023-12-29T00:59:42;12.90;66.30
32147;DHT22;32190;49.112;8.598;2023-12-29T01:05:34;12.90;66.40
32147;DHT22;32190;49.112;8.598;2023-12-29T01:11:24;12.90;66.40
32147;DHT22;32190;49.112;8.598;2023-12-29T01:17:15;12.90;66.40
32147;DHT22;32190;49.112;8.598;2023-12-29T01:23:06;12.90;66.30
32147;DHT22;32190;49.112;8.598;2023-12-29T01:28:56;12.90;66.20
32147;DHT22;32190;49.112;8.598;2023-12-29T01:34:47;12.90;66.30
32147;DHT22;32190;49.112;8.598;2023-12-29T01:40:44;12.80;66.20
32147;DHT22;32190;49.112;8.598;2023-12-29T01:46:35;12.80;66.30
32147;DHT22;32190;49.112;8.598;2023-12-29T01:52:26;12.80;66.10
32147;DHT22;32190;49.112;8.598;2023-12-29T01:58:16;12.80;66.10
32147;DHT22;32190;49.112;8.598;2023-12-29T02:04:07;12.80;66.20
32147;DHT22;32190;49.112;8.598;2023-12-29T02:09:58;12.80;66.10
32147;DHT22;32190;49.112;8.598;2023-12-29T02:15:54;12.80;66.20
32147;DHT22;32190;49.112;8.598;2023-12-29T02:21:48;12.70;66.20
32147;DHT22;32190;49.112;8.598;2023-12-29T02:27:58;12.70;66.10
32147;DHT22;32190;49.112;8.598;2023-12-29T02:33:51;12.70;66.10
32147;DHT22;32190;49.112;8.598;2023-12-29T02:39:43;12.70;66.10
32147;DHT22;32190;49.112;8.598;2023-12-29T02:45:33;12.70;66.00
32147;DHT22;32190;49.112;8.598;2023-12-29T02:51:24;12.60;65.90
32147;DHT22;32190;49.112;8.598;2023-12-29T02:57:14;12.60;66.00
32147;DHT22;32190;49.112;8.598;2023-12-29T03:03:05;12.60;66.10
32147;DHT22;32190;49.112;8.598;2023-12-29T03:08:55;12.60;66.30
32147;DHT22;32190;49.112;8.598;2023-12-29T03:14:46;12.60;66.30
32147;DHT22;32190;49.112;8.598;2023-12-29T03:20:37;12.60;66.30
32147;DHT22;32190;49.112;8.598;2023-12-29T03:26:28;12.60;66.40
32147;DHT22;32190;49.112;8.598;2023-12-29T03:32:18;12.60;66.40
32147;DHT22;32190;49.112;8.598;2023-12-29T03:38:09;12.70;66.40
32147;DHT22;32190;49.112;8.598;2023-12-29T03:44:00;12.70;66.40
32147;DHT22;32190;49.112;8.598;2023-12-29T03:49:50;12.70;66.50
32147;DHT22;32190;49.112;8.598;2023-12-29T03:55:41;12.70;66.50
32147;DHT22;32190;49.112;8.598;2023-12-29T04:01:33;12.70;66.40
32147;DHT22;32190;49.112;8.598;2023-12-29T04:07:24;12.70;66.40
32147;DHT22;32190;49.112;8.598;2023-12-29T04:13:14;12.70;66.40
32147;DHT22;32190;49.112;8.598;2023-12-29T04:19:05;12.70;66.60
32147;DHT22;32190;49.112;8.598;2023-12-29T04:24:55;12.80;67.40
32147;DHT22;32190;49.112;8.598;2023-12-29T04:30:46;12.80;66.60
32147;DHT22;32190;49.112;8.598;2023-12-29T04:36:37;12.80;66.60
32147;DHT22;32190;49.112;8.598;2023-12-29T04:42:27;12.80;66.50
32147;DHT22;32190;49.112;8.598;2023-12-29T04:48:18;12.80;66.50
32147;DHT22;32190;49.112;8.598;2023-12-29T04:54:08;12.80;66.40
32147;DHT22;32190;49.112;8.598;2023-12-29T04:59:59;12.80;66.40
32147;DHT22;32190;49.112;8.598;2023-12-29T05:05:49;12.80;66.50
32147;DHT22;32190;49.112;8.598;2023-12-29T05:11:40;12.80;66.60
32147;DHT22;32190;49.112;8.598;2023-12-29T05:17:30;12.80;66.60
32147;DHT22;32190;49.112;8.598;2023-12-29T05:23:21;12.80;66.70
32147;DHT22;32190;49.112;8.598;2023-12-29T05:29:12;12.80;66.70
32147;DHT22;32190;49.112;8.598;2023-12-29T05:35:02;12.80;66.80
32147;DHT22;32190;49.112;8.598;2023-12-29T05:40:53;12.90;66.80
32147;DHT22;32190;49.112;8.598;2023-12-29T05:46:46;12.80;66.60
32147;DHT22;32190;49.112;8.598;2023-12-29T05:52:38;12.80;66.70
32147;DHT22;32190;49.112;8.598;2023-12-29T05:58:28;12.80;66.50
32147;DHT22;32190;49.112;8.598;2023-12-29T06:04:19;12.70;66.50
32147;DHT22;32190;49.112;8.598;2023-12-29T06:10:09;12.70;66.60
32147;DHT22;32190;49.112;8.598;2023-12-29T06:16:00;12.60;66.50
32147;DHT22;32190;49.112;8.598;2023-12-29T06:21:51;12.60;66.50
32147;DHT22;32190;49.112;8.598;2023-12-29T06:27:41;12.60;66.60
32147;DHT22;32190;49.112;8.598;2023-12-29T06:33:32;12.60;66.70
32147;DHT22;32190;49.112;8.598;2023-12-29T06:39:22;12.60;66.70
32147;DHT22;32190;49.112;8.598;2023-12-29T06:45:14;12.60;66.80
32147;DHT22;32190;49.112;8.598;2023-12-29T06:51:04;12.60;66.90
32147;DHT22;32190;49.112;8.598;2023-12-29T06:56:55;12.50;66.80
32147;DHT22;32190;49.112;8.598;2023-12-29T07:02:46;12.50;66.90
32147;DHT22;32190;49.112;8.598;2023-12-29T07:08:36;12.60;66.90
32147;DHT22;32190;49.112;8.598;2023-12-29T07:14:27;12.60;66.90
32147;DHT22;32190;49.112;8.598;2023-12-29T07:20:17;12.60;66.90
32147;DHT22;32190;49.112;8.598;2023-12-29T07:26:08;12.60;66.90
32147;DHT22;32190;49.112;8.598;2023-12-29T07:31:58;12.60;66.70
32147;DHT22;32190;49.112;8.598;2023-12-29T07:37:49;12.60;66.80
32147;DHT22;32190;49.112;8.598;2023-12-29T07:43:40;12.60;66.90
32147;DHT22;32190;49.112;8.598;2023-12-29T07:49:30;12.60;67.00
32147;DHT22;32190;49.112;8.598;2023-12-29T07:55:21;12.60;67.10
32147;DHT22;32190;49.112;8.598;2023-12-29T08:01:12;12.60;67.20
32147;DHT22;32190;49.112;8.598;2023-12-29T08:07:02;12.60;67.10
32147;DHT22;32190;49.112;8.598;2023-12-29T08:12:53;12.60;67.00
32147;DHT22;32190;49.112;8.598;2023-12-29T08:18:48;12.70;67.20
32147;DHT22;32190;49.112;8.598;2023-12-29T08:24:42;12.60;67.20
32147;DHT22;32190;49.112;8.598;2023-12-29T08:30:35;12.70;67.20
32147;DHT22;32190;49.112;8.598;2023-12-29T08:36:28;12.70;67.30
32147;DHT22;32190;49.112;8.598;2023-12-29T08:42:19;12.70;67.30
32147;DHT22;32190;49.112;8.598;2023-12-29T08:48:09;12.70;67.20
32147;DHT22;32190;49.112;8.598;2023-12-29T08:54:00;12.80;67.20
32147;DHT22;32190;49.112;8.598;2023-12-29T08:59:51;12.80;67.20
32147;DHT22;32190;49.112;8.598;2023-12-29T09:05:41;12.80;67.20
32147;DHT22;32190;49.112;8.598;2023-12-29T09:11:32;12.80;67.20
32147;DHT22;32190;49.112;8.598;2023-12-29T09:17:22;12.90;67.30
32147;DHT22;32190;49.112;8.598;2023-12-29T09:23:13;12.90;67.30
32147;DHT22;32190;49.112;8.598;2023-12-29T09:29:04;13.00;67.30
32147;DHT22;32190;49.112;8.598;2023-12-29T09:34:54;13.00;67.30
32147;DHT22;32190;49.112;8.598;2023-12-29T09:40:46;13.00;67.20
32147;DHT22;32190;49.112;8.598;2023-12-29T09:46:37;13.10;67.30
32147;DHT22;32190;49.112;8.598;2023-12-29T09:52:28;13.20;67.40
32147;DHT22;32190;49.112;8.598;2023-12-29T09:58:21;13.20;67.30
32147;DHT22;32190;49.112;8.598;2023-12-29T10:04:12;13.20;67.30
32147;DHT22;32190;49.112;8.598;2023-12-29T10:10:04;13.30;67.30
32147;DHT22;32190;49.112;8.598;2023-12-29T10:16:24;13.30;67.20
32147;DHT22;32190;49.112;8.598;2023-12-29T10:22:21;13.40;67.40
32147;DHT22;32190;49.112;8.598;2023-12-29T10:28:16;13.50;67.30
32147;DHT22;32190;49.112;8.598;2023-12-29T10:34:21;13.50;67.10
32147;DHT22;32190;49.112;8.598;2023-12-29T10:40:19;13.50;67.10
32147;DHT22;32190;49.112;8.598;2023-12-29T10:46:11;13.70;67.10
32147;DHT22;32190;49.112;8.598;2023-12-29T10:52:11;13.70;67.00
32147;DHT22;32190;49.112;8.598;2023-12-29T10:58:03;13.70;66.80
32147;DHT22;32190;49.112;8.598;2023-12-29T11:04:02;13.80;66.70
32147;DHT22;32190;49.112;8.598;2023-12-29T11:09:53;13.80;66.60
32147;DHT22;32190;49.112;8.598;2023-12-29T11:15:45;13.90;66.70
32147;DHT22;32190;49.112;8.598;2023-12-29T11:21:37;14.00;66.60
32147;DHT22;32190;49.112;8.598;2023-12-29T11:27:29;14.00;66.30
32147;DHT22;32190;49.112;8.598;2023-12-29T11:33:27;14.00;66.20
32147;DHT22;32190;49.112;8.598;2023-12-29T11:39:52;14.10;66.20
32147;DHT22;32190;49.112;8.598;2023-12-29T11:45:49;14.10;66.00
32147;DHT22;32190;49.112;8.598;2023-12-29T11:51:46;14.20;65.70
32147;DHT22;32190;49.112;8.598;2023-12-29T11:57:39;14.20;65.50
32147;DHT22;32190;49.112;8.598;2023-12-29T12:03:33;14.20;65.60
32147;DHT22;32190;49.112;8.598;2023-12-29T12:09:23;14.20;65.60
32147;DHT22;32190;49.112;8.598;2023-12-29T12:21:18;14.30;65.10
32147;DHT22;32190;49.112;8.598;2023-12-29T12:27:10;14.40;65.20
32147;DHT22;32190;49.112;8.598;2023-12-29T12:33:02;14.40;65.10
32147;DHT22;32190;49.112;8.598;2023-12-29T12:38:57;14.50;65.20
32147;DHT22;32190;49.112;8.598;2023-12-29T12:44:56;14.50;64.90
32147;DHT22;32190;49.112;8.598;2023-12-29T12:50:47;14.50;64.60
32147;DHT22;32190;49.112;8.598;2023-12-29T12:56:41;14.50;64.90
32147;DHT22;32190;49.112;8.598;2023-12-29T13:02:33;14.50;64.80
32147;DHT22;32190;49.112;8.598;2023-12-29T13:08:24;14.60;64.90
32147;DHT22;32190;49.112;8.598;2023-12-29T13:14:22;14.70;64.80
32147;DHT22;32190;49.112;8.598;2023-12-29T13:20:13;14.70;64.50
32147;DHT22;32190;49.112;8.598;2023-12-29T13:26:06;14.70;64.70
32147;DHT22;32190;49.112;8.598;2023-12-29T13:32:19;14.70;64.10
32147;DHT22;32190;49.112;8.598;2023-12-29T13:38:38;14.80;63.90
32147;DHT22;32190;49.112;8.598;2023-12-29T13:44:28;14.80;63.50
32147;DHT22;32190;49.112;8.598;2023-12-29T13:50:19;14.80;64.20
32147;DHT22;32190;49.112;8.598;2023-12-29T13:56:11;14.80;63.80
32147;DHT22;32190;49.112;8.598;2023-12-29T14:02:35;14.80;63.30
32147;DHT22;32190;49.112;8.598;2023-12-29T14:14:23;14.90;63.00
32147;DHT22;32190;49.112;8.598;2023-12-29T14:20:32;14.90;62.30
32147;DHT22;32190;49.112;8.598;2023-12-29T14:26:23;15.00;63.00
32147;DHT22;32190;49.112;8.598;2023-12-29T14:32:13;15.00;62.50
32147;DHT22;32190;49.112;8.598;2023-12-29T14:38:04;15.00;62.80
32147;DHT22;32190;49.112;8.598;2023-12-29T14:43:55;15.00;62.00
32147;DHT22;32190;49.112;8.598;2023-12-29T14:49:45;14.90;62.00
32147;DHT22;32190;49.112;8.598;2023-12-29T14:55:37;15.00;62.00
32147;DHT22;32190;49.112;8.598;2023-12-29T15:01:27;14.90;61.90
32147;DHT22;32190;49.112;8.598;2023-12-29T15:07:18;14.90;61.90
32147;DHT22;32190;49.112;8.598;2023-12-29T15:13:09;14.80;61.80
32147;DHT22;32190;49.112;8.598;2023-12-29T15:19:00;14.70;61.50
32147;DHT22;32190;49.112;8.598;2023-12-29T15:24:54;14.70;61.50
32147;DHT22;32190;49.112;8.598;2023-12-29T15:30:45;14.60;61.60
32147;DHT22;32190;49.112;8.598;2023-12-29T15:36:36;14.60;61.30
32147;DHT22;32190;49.112;8.598;2023-12-29T15:42:26;14.50;61.30
32147;DHT22;32190;49.112;8.598;2023-12-29T15:48:20;14.40;61.40
32147;DHT22;32190;49.112;8.598;2023-12-29T15:54:10;14.40;61.00
32147;DHT22;32190;49.112;8.598;2023-12-29T16:00:01;14.30;60.90
32147;DHT22;32190;49.112;8.598;2023-12-29T16:05:51;14.30;61.30
32147;DHT22;32190;49.112;8.598;2023-12-29T16:11:42;14.20;61.40
32147;DHT22;32190;49.112;8.598;2023-12-29T16:17:33;14.20;61.60
32147;DHT22;32190;49.112;8.598;2023-12-29T16:23:23;14.20;61.20
32147;DHT22;32190;49.112;8.598;2023-12-29T16:29:14;14.10;61.20
32147;DHT22;32190;49.112;8.598;2023-12-29T16:35:05;14.00;61.30
32147;DHT22;32190;49.112;8.598;2023-12-29T16:40:55;14.00;61.20
32147;DHT22;32190;49.112;8.598;2023-12-29T16:46:46;14.00;61.30
32147;DHT22;32190;49.112;8.598;2023-12-29T16:52:37;13.90;61.10
32147;DHT22;32190;49.112;8.598;2023-12-29T16:58:27;13.90;61.20
32147;DHT22;32190;49.112;8.598;2023-12-29T17:04:18;13.90;61.10
32147;DHT22;32190;49.112;8.598;2023-12-29T17:10:09;14.00;61.00
32147;DHT22;32190;49.112;8.598;2023-12-29T17:15:59;14.00;61.40
32147;DHT22;32190;49.112;8.598;2023-12-29T17:21:50;13.90;61.50
32147;DHT22;32190;49.112;8.598;2023-12-29T17:27:41;13.90;61.40
32147;DHT22;32190;49.112;8.598;2023-12-29T17:33:33;13.90;61.50
32147;DHT22;32190;49.112;8.598;2023-12-29T17:39:24;13.90;61.30
32147;DHT22;32190;49.112;8.598;2023-12-29T17:45:14;13.90;60.80
32147;DHT22;32190;49.112;8.598;2023-12-29T17:51:05;13.90;61.00
32147;DHT22;32190;49.112;8.598;2023-12-29T17:56:57;13.90;61.00
32147;DHT22;32190;49.112;8.598;2023-12-29T18:02:48;13.90;61.30
32147;DHT22;32190;49.112;8.598;2023-12-29T18:08:42;14.00;60.50
32147;DHT22;32190;49.112;8.598;2023-12-29T18:14:39;13.90;60.40
32147;DHT22;32190;49.112;8.598;2023-12-29T18:20:30;13.90;59.70
32147;DHT22;32190;49.112;8.598;2023-12-29T18:26:22;14.00;61.10
32147;DHT22;32190;49.112;8.598;2023-12-29T18:32:12;14.00;60.40
32147;DHT22;32190;49.112;8.598;2023-12-29T18:38:03;13.90;60.30
32147;DHT22;32190;49.112;8.598;2023-12-29T18:43:54;13.90;60.20
32147;DHT22;32190;49.112;8.598;2023-12-29T18:49:44;13.90;60.40
32147;DHT22;32190;49.112;8.598;2023-12-29T18:55:35;13.90;60.30
32147;DHT22;32190;49.112;8.598;2023-12-29T19:01:25;13.90;60.40
32147;DHT22;32190;49.112;8.598;2023-12-29T19:07:16;13.90;60.40
32147;DHT22;32190;49.112;8.598;2023-12-29T19:13:08;13.80;60.50
32147;DHT22;32190;49.112;8.598;2023-12-29T19:18:59;13.80;60.50
32147;DHT22;32190;49.112;8.598;2023-12-29T19:24:50;13.80;60.30
32147;DHT22;32190;49.112;8.598;2023-12-29T19:30:40;13.80;60.10
32147;DHT22;32190;49.112;8.598;2023-12-29T19:36:31;13.80;60.30
32147;DHT22;32190;49.112;8.598;2023-12-29T19:42:22;13.80;60.40
32147;DHT22;32190;49.112;8.598;2023-12-29T19:48:12;13.80;60.20
32147;DHT22;32190;49.112;8.598;2023-12-29T19:54:03;13.80;60.30
32147;DHT22;32190;49.112;8.598;2023-12-29T19:59:54;13.80;60.10
32147;DHT22;32190;49.112;8.598;2023-12-29T20:05:46;13.80;60.20
32147;DHT22;32190;49.112;8.598;2023-12-29T20:11:40;13.80;60.30
32147;DHT22;32190;49.112;8.598;2023-12-29T20:17:31;13.80;60.30
32147;DHT22;32190;49.112;8.598;2023-12-29T20:23:22;13.80;60.10
32147;DHT22;32190;49.112;8.598;2023-12-29T20:29:12;13.80;60.00
32147;DHT22;32190;49.112;8.598;2023-12-29T20:35:04;13.80;59.80
32147;DHT22;32190;49.112;8.598;2023-12-29T20:40:55;13.80;59.90
32147;DHT22;32190;49.112;8.598;2023-12-29T20:46:45;13.80;59.90
32147;DHT22;32190;49.112;8.598;2023-12-29T20:52:36;13.80;59.80
32147;DHT22;32190;49.112;8.598;2023-12-29T20:58:27;13.80;59.80
32147;DHT22;32190;49.112;8.598;2023-12-29T21:04:18;13.80;59.40
32147;DHT22;32190;49.112;8.598;2023-12-29T21:10:09;13.80;59.50
32147;DHT22;32190;49.112;8.598;2023-12-29T21:15:59;13.80;59.60
32147;DHT22;32190;49.112;8.598;2023-12-29T21:21:50;13.80;59.90
32147;DHT22;32190;49.112;8.598;2023-12-29T21:27:41;13.70;59.90
32147;DHT22;32190;49.112;8.598;2023-12-29T21:33:31;13.70;59.80
32147;DHT22;32190;49.112;8.598;2023-12-29T21:39:22;13.70;59.70
32147;DHT22;32190;49.112;8.598;2023-12-29T21:45:12;13.70;59.80
32147;DHT22;32190;49.112;8.598;2023-12-29T21:51:07;13.70;60.30
32147;DHT22;32190;49.112;8.598;2023-12-29T21:56:58;13.70;59.60
32147;DHT22;32190;49.112;8.598;2023-12-29T22:02:49;13.70;59.60
32147;DHT22;32190;49.112;8.598;2023-12-29T22:08:40;13.70;59.70
32147;DHT22;32190;49.112;8.598;2023-12-29T22:14:30;13.70;60.10
32147;DHT22;32190;49.112;8.598;2023-12-29T22:20:21;13.70;59.90
32147;DHT22;32190;49.112;8.598;2023-12-29T22:26:16;13.70;59.90
32147;DHT22;32190;49.112;8.598;2023-12-29T22:32:07;13.70;59.70
32147;DHT22;32190;49.112;8.598;2023-12-29T22:37:57;13.70;59.80
32147;DHT22;32190;49.112;8.598;2023-12-29T22:43:48;13.70;59.80
32147;DHT22;32190;49.112;8.598;2023-12-29T22:49:39;13.70;59.90
32147;DHT22;32190;49.112;8.598;2023-12-29T22:55:30;13.70;59.90
32147;DHT22;32190;49.112;8.598;2023-12-29T23:01:20;13.70;59.90
32147;DHT22;32190;49.112;8.598;2023-12-29T23:07:11;13.70;59.90
32147;DHT22;32190;49.112;8.598;2023-12-29T23:13:02;13.70;59.80
32147;DHT22;32190;49.112;8.598;2023-12-29T23:18:54;13.70;59.80
32147;DHT22;32190;49.112;8.598;2023-12-29T23:24:45;13.80;59.90
32147;DHT22;32190;49.112;8.598;2023-12-29T23:30:35;13.70;59.80
32147;DHT22;32190;49.112;8.598;2023-12-29T23:36:26;13.70;59.80
32147;DHT22;32190;49.112;8.598;2023-12-29T23:42:17;13.70;60.00
32147;DHT22;32190;49.112;8.598;2023-12-29T23:48:09;13.70;59.90
32147;DHT22;32190;49.112;8.598;2023-12-29T23:54:00;13.70;59.90
32147;DHT22;32190;49.112;8.598;2023-12-29T23:59:51;13.70;60.00
